createdAt,value
2017-02-20T00:00:00.352Z,21.99
2017-02-20T00:01:00.382Z,21.9
2017-02-20T00:02:00.367Z,21.92
2017-02-20T00:03:00.446Z,21.9
2017-02-20T00:04:00.430Z,22
2017-02-20T00:05:00.434Z,21.91
2017-02-20T00:06:00.400Z,21.91
2017-02-20T00:07:00.441Z,21.99
2017-02-20T00:08:00.397Z,21.98
2017-02-20T00:09:00.064Z,21.94
2017-02-20T00:10:00.460Z,21.91
2017-02-20T00:11:00.019Z,21.92
2017-02-20T00:12:00.478Z,21.88
2017-02-20T00:13:00.428Z,21.91
2017-02-20T00:14:00.482Z,21.91
2017-02-20T00:15:00.512Z,21.96
2017-02-20T00:16:00.494Z,21.86
2017-02-20T00:17:00.066Z,21.91
2017-02-20T00:18:00.461Z,21.91
2017-02-20T00:19:00.163Z,21.91
2017-02-20T00:20:00.118Z,21.91
2017-02-20T00:21:00.083Z,21.88
2017-02-20T00:21:59.733Z,21.94
2017-02-20T00:23:00.093Z,21.92
2017-02-20T00:24:00.491Z,21.94
2017-02-20T00:25:00.584Z,21.91
2017-02-20T00:26:00.502Z,21.88
2017-02-20T00:27:00.502Z,21.98
2017-02-20T00:28:00.564Z,21.92
2017-02-20T00:29:00.520Z,21.91
2017-02-20T00:30:00.144Z,21.94
2017-02-20T00:31:00.547Z,21.9
2017-02-20T00:32:00.586Z,21.91
2017-02-20T00:33:00.587Z,21.91
2017-02-20T00:34:00.558Z,21.96
2017-02-20T00:35:00.900Z,21.92
2017-02-20T00:36:00.561Z,21.94
2017-02-20T00:37:00.570Z,21.92
2017-02-20T00:38:00.577Z,21.98
2017-02-20T00:39:00.677Z,21.92
2017-02-20T00:40:00.631Z,21.84
2017-02-20T00:41:00.240Z,21.98
2017-02-20T00:42:00.590Z,21.92
2017-02-20T00:43:00.599Z,21.91
2017-02-20T00:44:15.080Z,21.94
2017-02-20T00:45:00.655Z,21.86
2017-02-20T00:46:00.265Z,21.94
2017-02-20T00:47:00.667Z,21.96
2017-02-20T00:48:00.276Z,22
2017-02-20T00:49:00.638Z,21.91
2017-02-20T00:50:00.634Z,21.92
2017-02-20T00:51:00.650Z,21.94
2017-02-20T00:52:00.299Z,21.91
2017-02-20T00:53:00.663Z,21.92
2017-02-20T00:54:00.663Z,21.9
2017-02-20T00:55:00.265Z,21.94
2017-02-20T00:56:00.378Z,21.9
2017-02-20T00:57:00.719Z,21.92
2017-02-20T00:58:00.332Z,21.91
2017-02-20T00:59:00.684Z,21.98
2017-02-20T01:00:00.686Z,21.86
2017-02-20T01:01:00.744Z,21.94
2017-02-20T01:02:00.762Z,21.92
2017-02-20T01:03:00.720Z,21.91
2017-02-20T01:04:00.773Z,21.92
2017-02-20T01:05:00.720Z,21.91
2017-02-20T01:06:00.778Z,22
2017-02-20T01:07:00.337Z,21.98
2017-02-20T01:08:00.737Z,21.96
2017-02-20T01:09:01.096Z,21.98
2017-02-20T01:10:00.805Z,21.91
2017-02-20T01:11:00.379Z,21.94
2017-02-20T01:12:00.417Z,21.88
2017-02-20T01:13:00.366Z,21.9
2017-02-20T01:14:00.381Z,21.98
2017-02-20T01:15:00.378Z,21.98
2017-02-20T01:16:00.781Z,21.91
2017-02-20T01:17:00.793Z,21.92
2017-02-20T01:18:00.898Z,21.92
2017-02-20T01:19:00.844Z,21.86
2017-02-20T01:20:00.799Z,21.96
2017-02-20T01:21:00.874Z,21.88
2017-02-20T01:22:00.813Z,21.86
2017-02-20T01:23:00.917Z,21.8
2017-02-20T01:24:00.824Z,21.84
2017-02-20T01:25:00.840Z,21.94
2017-02-20T01:26:00.885Z,21.86
2017-02-20T01:27:00.904Z,21.86
2017-02-20T01:28:00.846Z,21.9
2017-02-20T01:29:00.903Z,21.83
2017-02-20T01:30:00.871Z,21.91
2017-02-20T01:31:00.881Z,21.91
2017-02-20T01:32:00.884Z,21.84
2017-02-20T01:33:00.874Z,21.96
2017-02-20T01:34:00.482Z,21.92
2017-02-20T01:35:00.893Z,21.91
2017-02-20T01:36:00.890Z,21.94
2017-02-20T01:37:00.550Z,21.91
2017-02-20T01:38:00.608Z,21.83
2017-02-20T01:39:00.963Z,21.96
2017-02-20T01:40:00.579Z,21.91
2017-02-20T01:41:00.916Z,21.8
2017-02-20T01:42:00.926Z,21.86
2017-02-20T01:43:01.043Z,21.92
2017-02-20T01:44:00.947Z,21.9
2017-02-20T01:45:00.989Z,21.83
2017-02-20T01:46:00.597Z,21.9
2017-02-20T01:47:01.004Z,21.86
2017-02-20T01:48:00.566Z,21.88
2017-02-20T01:49:00.962Z,21.92
2017-02-20T01:50:00.975Z,21.84
2017-02-20T01:51:01.054Z,21.96
2017-02-20T01:52:00.594Z,21.94
2017-02-20T01:53:00.985Z,21.94
2017-02-20T01:54:01.041Z,21.96
2017-02-20T01:55:00.996Z,21.91
2017-02-20T01:56:01.051Z,21.88
2017-02-20T01:57:00.662Z,21.96
2017-02-20T01:58:01.021Z,21.91
2017-02-20T01:59:00.688Z,21.96
2017-02-20T02:00:01.071Z,21.94
2017-02-20T02:01:01.036Z,21.91
2017-02-20T02:02:01.036Z,21.98
2017-02-20T02:03:01.095Z,21.99
2017-02-20T02:04:01.053Z,21.91
2017-02-20T02:05:01.102Z,21.84
2017-02-20T02:06:01.059Z,21.91
2017-02-20T02:07:01.065Z,21.91
2017-02-20T02:08:01.114Z,21.84
2017-02-20T02:09:01.123Z,21.98
2017-02-20T02:10:01.201Z,21.9
2017-02-20T02:11:01.101Z,21.98
2017-02-20T02:12:00.704Z,21.88
2017-02-20T02:13:00.800Z,21.84
2017-02-20T02:14:01.102Z,21.88
2017-02-20T02:15:01.161Z,21.84
2017-02-20T02:16:01.166Z,21.84
2017-02-20T02:17:01.119Z,21.94
2017-02-20T02:18:00.730Z,21.9
2017-02-20T02:19:01.177Z,21.91
2017-02-20T02:20:01.137Z,21.92
2017-02-20T02:21:01.216Z,21.86
2017-02-20T02:22:01.146Z,21.84
2017-02-20T02:23:00.762Z,21.79
2017-02-20T02:24:01.260Z,21.9
2017-02-20T02:25:01.515Z,21.88
2017-02-20T02:26:01.271Z,21.9
2017-02-20T02:27:01.282Z,21.91
2017-02-20T02:28:01.237Z,21.82
2017-02-20T02:29:01.286Z,21.92
2017-02-20T02:30:01.189Z,21.8
2017-02-20T02:31:01.198Z,21.9
2017-02-20T02:32:01.251Z,21.86
2017-02-20T02:33:01.221Z,21.94
2017-02-20T02:34:01.230Z,21.88
2017-02-20T02:35:01.227Z,21.92
2017-02-20T02:36:00.879Z,21.8
2017-02-20T02:37:00.852Z,21.8
2017-02-20T02:38:01.296Z,21.9
2017-02-20T02:39:01.241Z,21.83
2017-02-20T02:40:01.260Z,21.9
2017-02-20T02:41:01.251Z,21.91
2017-02-20T02:42:01.307Z,21.83
2017-02-20T02:43:01.260Z,21.83
2017-02-20T02:44:01.320Z,21.86
2017-02-20T02:45:01.270Z,21.83
2017-02-20T02:46:01.284Z,21.86
2017-02-20T02:47:01.314Z,21.91
2017-02-20T02:48:01.304Z,21.86
2017-02-20T02:49:00.903Z,21.8
2017-02-20T02:50:01.300Z,21.83
2017-02-20T02:51:01.357Z,21.86
2017-02-20T02:52:01.316Z,21.77
2017-02-20T02:53:00.934Z,21.79
2017-02-20T02:54:00.938Z,21.83
2017-02-20T02:55:00.941Z,21.9
2017-02-20T02:56:01.397Z,21.86
2017-02-20T02:57:00.947Z,21.86
2017-02-20T02:58:00.946Z,21.8
2017-02-20T02:59:00.555Z,21.86
2017-02-20T03:00:01.375Z,21.86
2017-02-20T03:01:01.383Z,21.8
2017-02-20T03:02:01.022Z,21.8
2017-02-20T03:03:01.033Z,21.8
2017-02-20T03:04:01.439Z,21.86
2017-02-20T03:05:00.995Z,21.84
2017-02-20T03:06:01.391Z,21.9
2017-02-20T03:07:01.451Z,21.86
2017-02-20T03:08:01.408Z,21.84
2017-02-20T03:09:01.422Z,21.96
2017-02-20T03:10:01.416Z,21.82
2017-02-20T03:11:01.419Z,21.92
2017-02-20T03:12:01.448Z,21.99
2017-02-20T03:13:01.045Z,21.91
2017-02-20T03:14:01.050Z,21.9
2017-02-20T03:15:01.437Z,21.91
2017-02-20T03:16:01.448Z,21.96
2017-02-20T03:17:01.501Z,21.92
2017-02-20T03:18:01.571Z,22.02
2017-02-20T03:19:01.585Z,21.91
2017-02-20T03:20:01.523Z,21.94
2017-02-20T03:21:01.091Z,21.9
2017-02-20T03:22:01.538Z,21.94
2017-02-20T03:23:01.487Z,21.91
2017-02-20T03:24:01.549Z,21.9
2017-02-20T03:25:01.501Z,21.91
2017-02-20T03:26:01.507Z,21.88
2017-02-20T03:27:01.514Z,21.9
2017-02-20T03:28:01.573Z,21.94
2017-02-20T03:29:01.520Z,21.92
2017-02-20T03:30:01.649Z,21.88
2017-02-20T03:31:01.533Z,22
2017-02-20T03:32:01.149Z,22
2017-02-20T03:33:01.542Z,21.94
2017-02-20T03:34:01.600Z,21.9
2017-02-20T03:35:01.182Z,21.96
2017-02-20T03:36:01.608Z,21.92
2017-02-20T03:37:01.568Z,21.94
2017-02-20T03:38:01.642Z,21.91
2017-02-20T03:39:01.241Z,21.94
2017-02-20T03:40:01.592Z,21.96
2017-02-20T03:41:01.599Z,21.92
2017-02-20T03:42:01.593Z,21.96
2017-02-20T03:43:01.218Z,22.02
2017-02-20T03:44:01.720Z,21.9
2017-02-20T03:45:01.614Z,21.99
2017-02-20T03:46:01.322Z,22.07
2017-02-20T03:47:01.278Z,21.91
2017-02-20T03:48:01.639Z,21.88
2017-02-20T03:49:01.653Z,21.94
2017-02-20T03:50:01.705Z,22
2017-02-20T03:51:01.694Z,22.05
2017-02-20T03:52:01.971Z,22.03
2017-02-20T03:53:01.731Z,22.07
2017-02-20T03:54:01.712Z,22.09
2017-02-20T03:55:01.689Z,22.09
2017-02-20T03:56:01.685Z,22.02
2017-02-20T03:57:01.285Z,22.05
2017-02-20T03:58:01.295Z,22.02
2017-02-20T03:59:01.306Z,22.05
2017-02-20T04:00:01.716Z,22.02
2017-02-20T04:01:01.703Z,22.06
2017-02-20T04:02:01.311Z,21.94
2017-02-20T04:03:01.732Z,22.03
2017-02-20T04:04:01.729Z,22
2017-02-20T04:05:01.736Z,22.07
2017-02-20T04:06:01.834Z,22.05
2017-02-20T04:07:01.759Z,22.06
2017-02-20T04:08:01.758Z,21.99
2017-02-20T04:09:01.752Z,22.03
2017-02-20T04:10:01.768Z,21.91
2017-02-20T04:11:02.022Z,21.96
2017-02-20T04:12:01.768Z,22
2017-02-20T04:13:01.826Z,22.02
2017-02-20T04:14:01.777Z,22
2017-02-20T04:15:01.800Z,21.9
2017-02-20T04:16:01.842Z,21.92
2017-02-20T04:17:01.800Z,21.92
2017-02-20T04:18:01.802Z,21.9
2017-02-20T04:19:01.418Z,21.96
2017-02-20T04:20:01.886Z,21.91
2017-02-20T04:21:01.818Z,21.92
2017-02-20T04:22:01.481Z,21.96
2017-02-20T04:23:01.932Z,21.83
2017-02-20T04:24:01.462Z,21.83
2017-02-20T04:25:01.853Z,21.96
2017-02-20T04:26:01.503Z,21.84
2017-02-20T04:27:01.871Z,21.91
2017-02-20T04:28:01.090Z,21.84
2017-02-20T04:29:01.867Z,21.84
2017-02-20T04:30:01.868Z,21.9
2017-02-20T04:31:01.946Z,21.84
2017-02-20T04:32:01.886Z,21.88
2017-02-20T04:33:01.902Z,21.9
2017-02-20T04:34:01.891Z,21.84
2017-02-20T04:35:01.555Z,21.84
2017-02-20T04:36:02.005Z,21.83
2017-02-20T04:37:01.516Z,21.84
2017-02-20T04:38:01.916Z,21.8
2017-02-20T04:39:02.221Z,21.83
2017-02-20T04:40:01.994Z,21.86
2017-02-20T04:41:01.936Z,21.83
2017-02-20T04:42:01.940Z,21.82
2017-02-20T04:43:01.613Z,21.8
2017-02-20T04:44:01.610Z,21.8
2017-02-20T04:45:01.952Z,21.8
2017-02-20T04:46:01.959Z,21.79
2017-02-20T04:47:02.025Z,21.77
2017-02-20T04:48:02.027Z,21.84
2017-02-20T04:49:01.990Z,21.75
2017-02-20T04:50:01.991Z,21.83
2017-02-20T04:51:01.992Z,21.82
2017-02-20T04:52:02.050Z,21.72
2017-02-20T04:53:01.603Z,21.8
2017-02-20T04:54:02.063Z,21.84
2017-02-20T04:55:01.229Z,21.82
2017-02-20T04:56:01.629Z,21.9
2017-02-20T04:57:02.070Z,21.74
2017-02-20T04:58:02.076Z,21.79
2017-02-20T04:59:02.032Z,21.84
2017-02-20T05:00:02.048Z,21.8
2017-02-20T05:01:02.058Z,21.8
2017-02-20T05:02:01.711Z,21.79
2017-02-20T05:03:02.057Z,21.82
2017-02-20T05:04:02.069Z,21.83
2017-02-20T05:05:01.717Z,21.88
2017-02-20T05:06:02.175Z,21.86
2017-02-20T05:07:02.182Z,21.77
2017-02-20T05:08:02.094Z,21.83
2017-02-20T05:09:01.711Z,21.83
2017-02-20T05:10:02.108Z,21.79
2017-02-20T05:11:02.105Z,21.75
2017-02-20T05:12:02.761Z,21.79
2017-02-20T05:13:02.162Z,21.74
2017-02-20T05:14:16.603Z,21.74
2017-02-20T05:15:02.122Z,21.82
2017-02-20T05:16:01.862Z,21.8
2017-02-20T05:17:02.194Z,21.88
2017-02-20T05:18:01.793Z,21.77
2017-02-20T05:19:02.191Z,21.86
2017-02-20T05:20:02.156Z,21.74
2017-02-20T05:21:02.166Z,21.79
2017-02-20T05:22:01.776Z,21.8
2017-02-20T05:23:02.165Z,21.86
2017-02-20T05:24:02.179Z,21.91
2017-02-20T05:25:02.284Z,21.75
2017-02-20T05:26:02.229Z,21.8
2017-02-20T05:27:02.243Z,21.83
2017-02-20T05:28:02.199Z,21.77
2017-02-20T05:29:02.199Z,21.75
2017-02-20T05:30:02.262Z,21.75
2017-02-20T05:31:02.222Z,21.83
2017-02-20T05:32:02.286Z,21.82
2017-02-20T05:33:02.272Z,21.79
2017-02-20T05:34:02.247Z,21.75
2017-02-20T05:35:02.285Z,21.86
2017-02-20T05:36:02.242Z,21.82
2017-02-20T05:37:02.244Z,21.75
2017-02-20T05:38:02.309Z,21.8
2017-02-20T05:39:02.269Z,21.8
2017-02-20T05:40:02.259Z,21.72
2017-02-20T05:41:02.319Z,21.79
2017-02-20T05:42:02.323Z,21.8
2017-02-20T05:43:02.271Z,21.74
2017-02-20T05:44:01.935Z,21.82
2017-02-20T05:45:01.945Z,21.8
2017-02-20T05:46:02.344Z,21.77
2017-02-20T05:47:02.399Z,21.77
2017-02-20T05:48:02.315Z,21.79
2017-02-20T05:49:02.609Z,21.77
2017-02-20T05:50:02.323Z,21.84
2017-02-20T05:51:02.325Z,21.82
2017-02-20T05:52:02.392Z,21.74
2017-02-20T05:53:02.782Z,21.77
2017-02-20T05:54:02.334Z,21.79
2017-02-20T05:55:02.341Z,21.79
2017-02-20T05:56:02.347Z,21.8
2017-02-20T05:57:02.417Z,21.77
2017-02-20T05:58:02.361Z,21.75
2017-02-20T05:59:02.367Z,21.82
2017-02-20T06:00:02.025Z,21.72
2017-02-20T06:01:02.397Z,21.8
2017-02-20T06:02:02.393Z,21.8
2017-02-20T06:03:01.656Z,21.77
2017-02-20T06:04:01.991Z,21.75
2017-02-20T06:05:02.398Z,21.8
2017-02-20T06:06:02.452Z,21.75
2017-02-20T06:07:02.470Z,21.77
2017-02-20T06:08:02.017Z,21.75
2017-02-20T06:09:02.424Z,21.77
2017-02-20T06:10:02.443Z,21.8
2017-02-20T06:11:02.432Z,21.79
2017-02-20T06:12:02.536Z,21.72
2017-02-20T06:13:02.492Z,21.8
2017-02-20T06:14:02.101Z,21.71
2017-02-20T06:15:02.504Z,21.75
2017-02-20T06:16:02.456Z,21.77
2017-02-20T06:17:02.625Z,21.77
2017-02-20T06:18:02.546Z,21.8
2017-02-20T06:19:02.528Z,21.75
2017-02-20T06:20:02.181Z,21.72
2017-02-20T06:21:02.148Z,21.72
2017-02-20T06:22:02.507Z,21.69
2017-02-20T06:23:02.545Z,21.74
2017-02-20T06:24:02.555Z,21.69
2017-02-20T06:25:02.558Z,21.69
2017-02-20T06:26:02.122Z,21.79
2017-02-20T06:27:02.623Z,21.75
2017-02-20T06:28:02.586Z,21.75
2017-02-20T06:29:02.629Z,21.71
2017-02-20T06:30:02.539Z,21.75
2017-02-20T06:31:02.616Z,21.71
2017-02-20T06:32:02.558Z,21.68
2017-02-20T06:33:02.552Z,21.72
2017-02-20T06:34:02.626Z,21.79
2017-02-20T06:35:02.177Z,21.8
2017-02-20T06:36:02.667Z,21.8
2017-02-20T06:37:02.575Z,21.77
2017-02-20T06:38:02.587Z,21.75
2017-02-20T06:39:02.586Z,21.74
2017-02-20T06:40:02.593Z,21.69
2017-02-20T06:41:02.702Z,21.69
2017-02-20T06:42:02.609Z,21.77
2017-02-20T06:43:02.604Z,21.74
2017-02-20T06:44:02.615Z,21.68
2017-02-20T06:45:02.616Z,21.72
2017-02-20T06:46:02.686Z,21.75
2017-02-20T06:47:02.257Z,21.75
2017-02-20T06:48:02.690Z,21.75
2017-02-20T06:49:02.640Z,21.74
2017-02-20T06:50:02.661Z,21.69
2017-02-20T06:51:02.659Z,21.68
2017-02-20T06:52:02.671Z,21.74
2017-02-20T06:53:02.308Z,21.65
2017-02-20T06:54:02.667Z,21.69
2017-02-20T06:55:02.790Z,21.72
2017-02-20T06:56:01.899Z,21.74
2017-02-20T06:57:02.740Z,21.8
2017-02-20T06:58:02.789Z,21.79
2017-02-20T06:59:02.299Z,21.74
2017-02-20T07:00:03.058Z,21.77
2017-02-20T07:01:02.710Z,21.79
2017-02-20T07:02:02.361Z,21.71
2017-02-20T07:03:02.730Z,21.8
2017-02-20T07:04:02.724Z,21.77
2017-02-20T07:05:02.738Z,21.82
2017-02-20T07:06:02.803Z,21.75
2017-02-20T07:07:02.744Z,21.74
2017-02-20T07:08:02.742Z,21.71
2017-02-20T07:09:02.751Z,21.75
2017-02-20T07:10:02.373Z,21.79
2017-02-20T07:11:02.758Z,21.72
2017-02-20T07:12:02.765Z,21.75
2017-02-20T07:13:02.782Z,21.77
2017-02-20T07:14:02.866Z,21.74
2017-02-20T07:15:02.779Z,21.8
2017-02-20T07:16:02.808Z,21.82
2017-02-20T07:17:02.852Z,21.86
2017-02-20T07:18:02.863Z,21.9
2017-02-20T07:19:02.432Z,21.88
2017-02-20T07:20:02.809Z,21.84
2017-02-20T07:21:02.022Z,21.84
2017-02-20T07:22:02.475Z,21.82
2017-02-20T07:23:02.435Z,21.79
2017-02-20T07:24:02.434Z,21.75
2017-02-20T07:25:02.843Z,21.77
2017-02-20T07:26:02.916Z,21.77
2017-02-20T07:27:02.905Z,21.91
2017-02-20T07:28:02.853Z,22.05
2017-02-20T07:29:02.854Z,22.03
2017-02-20T07:30:02.472Z,22.22
2017-02-20T07:31:02.535Z,22.24
2017-02-20T07:32:02.536Z,22.47
2017-02-20T07:33:02.931Z,22.46
2017-02-20T07:34:02.893Z,22.67
2017-02-20T07:35:02.903Z,22.79
2017-02-20T07:36:02.951Z,22.83
2017-02-20T07:37:02.900Z,22.92
2017-02-20T07:38:02.958Z,23.05
2017-02-20T07:39:02.572Z,23.17
2017-02-20T07:40:02.925Z,23.25
2017-02-20T07:41:02.537Z,23.32
2017-02-20T07:42:02.984Z,23.4
2017-02-20T07:43:02.551Z,23.55
2017-02-20T07:44:04.495Z,23.54
2017-02-20T07:45:02.557Z,23.61
2017-02-20T07:46:03.451Z,23.61
2017-02-20T07:47:02.981Z,23.65
2017-02-20T07:48:02.982Z,23.79
2017-02-20T07:49:02.575Z,23.83
2017-02-20T07:50:02.978Z,23.79
2017-02-20T07:51:02.978Z,23.87
2017-02-20T07:52:03.037Z,23.73
2017-02-20T07:53:02.612Z,23.75
2017-02-20T07:54:02.998Z,23.78
2017-02-20T07:55:03.062Z,23.78
2017-02-20T07:56:03.022Z,23.9
2017-02-20T07:57:03.023Z,23.8
2017-02-20T07:58:03.039Z,23.94
2017-02-20T07:59:02.636Z,23.84
2017-02-20T08:00:03.038Z,23.79
2017-02-20T08:01:03.041Z,23.87
2017-02-20T08:02:03.097Z,23.97
2017-02-20T08:03:03.068Z,23.95
2017-02-20T08:04:02.666Z,23.97
2017-02-20T08:05:03.117Z,23.93
2017-02-20T08:06:03.127Z,23.94
2017-02-20T08:07:03.188Z,24
2017-02-20T08:08:03.139Z,23.93
2017-02-20T08:09:03.111Z,23.91
2017-02-20T08:10:03.154Z,23.95
2017-02-20T08:11:03.108Z,24.06
2017-02-20T08:12:03.112Z,23.94
2017-02-20T08:13:03.375Z,23.91
2017-02-20T08:14:03.181Z,23.95
2017-02-20T08:15:03.183Z,23.95
2017-02-20T08:16:03.145Z,24
2017-02-20T08:17:04.304Z,24
2017-02-20T08:18:03.264Z,23.94
2017-02-20T08:19:03.158Z,24.03
2017-02-20T08:20:03.212Z,24
2017-02-20T08:21:03.317Z,23.97
2017-02-20T08:22:02.783Z,23.98
2017-02-20T08:23:03.181Z,23.95
2017-02-20T08:24:03.194Z,23.98
2017-02-20T08:25:03.204Z,24.06
2017-02-20T08:26:03.215Z,24.06
2017-02-20T08:27:03.268Z,24.03
2017-02-20T08:28:03.225Z,23.98
2017-02-20T08:29:03.270Z,24.05
2017-02-20T08:30:02.832Z,24.18
2017-02-20T08:31:02.443Z,24.1
2017-02-20T08:32:03.395Z,23.98
2017-02-20T08:33:03.259Z,24.18
2017-02-20T08:34:03.263Z,24.16
2017-02-20T08:35:03.415Z,24.15
2017-02-20T08:36:03.386Z,24.18
2017-02-20T08:37:03.278Z,24.27
2017-02-20T08:38:03.338Z,24.24
2017-02-20T08:39:02.891Z,24.08
2017-02-20T08:40:03.338Z,24.2
2017-02-20T08:41:03.353Z,24.27
2017-02-20T08:42:03.301Z,24.24
2017-02-20T08:43:03.360Z,24.3
2017-02-20T08:44:03.322Z,24.31
2017-02-20T08:45:03.380Z,24.32
2017-02-20T08:46:03.376Z,24.24
2017-02-20T08:47:03.486Z,24.24
2017-02-20T08:48:03.648Z,24.3
2017-02-20T08:49:03.403Z,24.18
2017-02-20T08:50:02.671Z,24.25
2017-02-20T08:51:02.962Z,24.18
2017-02-20T08:52:03.104Z,24.27
2017-02-20T08:53:03.388Z,24.18
2017-02-20T08:54:03.381Z,24.22
2017-02-20T08:55:03.437Z,24.2
2017-02-20T08:56:03.443Z,24.22
2017-02-20T08:57:03.396Z,24.05
2017-02-20T08:58:03.409Z,24.2
2017-02-20T08:59:03.411Z,24.22
2017-02-20T09:00:03.416Z,24.25
2017-02-20T09:01:03.420Z,24.25
2017-02-20T09:02:03.438Z,24.22
2017-02-20T09:03:03.446Z,24.28
2017-02-20T09:04:03.489Z,24.21
2017-02-20T09:05:03.549Z,24.22
2017-02-20T09:06:03.460Z,24.2
2017-02-20T09:07:03.560Z,24.13
2017-02-20T09:08:03.464Z,24.31
2017-02-20T09:09:03.479Z,24.27
2017-02-20T09:10:03.480Z,24.22
2017-02-20T09:11:03.499Z,24.27
2017-02-20T09:12:03.490Z,24.24
2017-02-20T09:13:03.547Z,24.21
2017-02-20T09:14:03.523Z,24.28
2017-02-20T09:15:03.696Z,24.21
2017-02-20T09:16:03.585Z,24.27
2017-02-20T09:17:03.530Z,24.24
2017-02-20T09:18:03.146Z,24.25
2017-02-20T09:19:03.538Z,24.25
2017-02-20T09:20:03.151Z,24.28
2017-02-20T09:21:03.173Z,24.27
2017-02-20T09:22:03.571Z,24.34
2017-02-20T09:23:03.666Z,24.31
2017-02-20T09:24:03.577Z,24.28
2017-02-20T09:25:03.579Z,24.24
2017-02-20T09:26:03.633Z,24.24
2017-02-20T09:27:03.589Z,24.22
2017-02-20T09:28:03.596Z,24.25
2017-02-20T09:29:03.703Z,24.22
2017-02-20T09:30:03.264Z,24.22
2017-02-20T09:31:03.664Z,24.22
2017-02-20T09:32:03.672Z,24.25
2017-02-20T09:33:03.681Z,24.27
2017-02-20T09:34:03.258Z,24.2
2017-02-20T09:35:03.306Z,24.27
2017-02-20T09:36:03.712Z,24.2
2017-02-20T09:37:03.671Z,24.22
2017-02-20T09:38:03.660Z,24.21
2017-02-20T09:39:03.681Z,24.2
2017-02-20T09:40:03.688Z,24.3
2017-02-20T09:41:03.679Z,24.39
2017-02-20T09:42:03.690Z,24.35
2017-02-20T09:43:03.699Z,24.25
2017-02-20T09:44:03.712Z,24.22
2017-02-20T09:45:03.755Z,24.2
2017-02-20T09:46:03.313Z,24.22
2017-02-20T09:47:03.426Z,24.22
2017-02-20T09:48:03.327Z,24.16
2017-02-20T09:49:03.735Z,24.24
2017-02-20T09:50:03.346Z,24.24
2017-02-20T09:51:03.745Z,24.15
2017-02-20T09:52:03.750Z,24.24
2017-02-20T09:53:03.368Z,24.25
2017-02-20T09:54:03.764Z,24.2
2017-02-20T09:55:03.773Z,24.21
2017-02-20T09:56:03.780Z,24.22
2017-02-20T09:57:03.803Z,24.31
2017-02-20T09:58:03.903Z,24.31
2017-02-20T09:59:03.843Z,24.2
2017-02-20T10:00:03.811Z,24.3
2017-02-20T10:01:03.825Z,24.31
2017-02-20T10:02:03.867Z,24.27
2017-02-20T10:03:03.479Z,24.15
2017-02-20T10:04:03.487Z,24.12
2017-02-20T10:05:03.859Z,24.25
2017-02-20T10:06:03.890Z,24.16
2017-02-20T10:07:03.856Z,24.15
2017-02-20T10:08:03.864Z,24.21
2017-02-20T10:09:03.863Z,24.18
2017-02-20T10:10:03.469Z,24.13
2017-02-20T10:11:03.881Z,24.2
2017-02-20T10:12:03.891Z,24.16
2017-02-20T10:13:03.956Z,24.22
2017-02-20T10:14:03.895Z,24.09
2017-02-20T10:15:04.015Z,24.12
2017-02-20T10:16:03.208Z,24.16
2017-02-20T10:17:03.961Z,24.2
2017-02-20T10:18:03.636Z,24.24
2017-02-20T10:19:03.924Z,24.15
2017-02-20T10:20:03.532Z,24.21
2017-02-20T10:21:03.992Z,24.21
2017-02-20T10:22:03.658Z,24.27
2017-02-20T10:23:03.992Z,24.18
2017-02-20T10:24:03.968Z,24.21
2017-02-20T10:25:03.574Z,24.24
2017-02-20T10:26:03.227Z,24.2
2017-02-20T10:27:03.992Z,24.2
2017-02-20T10:28:03.980Z,24.24
2017-02-20T10:29:03.614Z,24.27
2017-02-20T10:30:04.022Z,24.25
2017-02-20T10:31:03.667Z,24.2
2017-02-20T10:32:03.712Z,24.24
2017-02-20T10:33:04.012Z,24.25
2017-02-20T10:34:04.070Z,24.3
2017-02-20T10:35:04.078Z,24.31
2017-02-20T10:36:04.083Z,24.21
2017-02-20T10:37:04.110Z,24.24
2017-02-20T10:38:03.662Z,24.28
2017-02-20T10:39:03.661Z,24.24
2017-02-20T10:40:04.070Z,24.28
2017-02-20T10:41:04.071Z,24.25
2017-02-20T10:42:04.186Z,24.25
2017-02-20T10:43:04.127Z,24.22
2017-02-20T10:44:03.750Z,24.28
2017-02-20T10:45:04.088Z,24.21
2017-02-20T10:46:04.105Z,24.28
2017-02-20T10:47:03.360Z,24.31
2017-02-20T10:48:04.167Z,24.28
2017-02-20T10:49:04.116Z,24.24
2017-02-20T10:50:04.161Z,24.3
2017-02-20T10:51:03.783Z,24.37
2017-02-20T10:52:04.136Z,24.32
2017-02-20T10:53:04.192Z,24.22
2017-02-20T10:54:03.751Z,24.35
2017-02-20T10:55:04.159Z,24.37
2017-02-20T10:56:04.168Z,24.37
2017-02-20T10:57:04.168Z,24.28
2017-02-20T10:58:03.780Z,24.34
2017-02-20T10:59:04.248Z,24.32
2017-02-20T11:00:04.193Z,24.3
2017-02-20T11:01:04.256Z,24.2
2017-02-20T11:02:03.827Z,24.24
2017-02-20T11:03:04.256Z,24.24
2017-02-20T11:04:04.218Z,24.32
2017-02-20T11:05:04.271Z,24.42
2017-02-20T11:06:03.956Z,24.39
2017-02-20T11:07:04.286Z,24.3
2017-02-20T11:08:03.905Z,24.3
2017-02-20T11:09:03.867Z,24.35
2017-02-20T11:11:04.325Z,24.4
2017-02-20T11:12:04.389Z,24.37
2017-02-20T11:13:04.385Z,24.37
2017-02-20T11:14:04.409Z,24.32
2017-02-20T11:15:03.907Z,24.31
2017-02-20T11:16:04.311Z,24.28
2017-02-20T11:17:04.362Z,24.3
2017-02-20T11:18:04.427Z,24.37
2017-02-20T11:19:04.382Z,24.5
2017-02-20T11:20:04.380Z,24.46
2017-02-20T11:21:04.343Z,24.31
2017-02-20T11:22:04.402Z,24.28
2017-02-20T11:23:04.346Z,24.34
2017-02-20T11:24:04.417Z,24.3
2017-02-20T11:25:05.504Z,24.27
2017-02-20T11:26:04.378Z,24.22
2017-02-20T11:27:04.419Z,24.28
2017-02-20T11:28:04.434Z,24.39
2017-02-20T11:29:04.443Z,24.31
2017-02-20T11:30:04.392Z,24.27
2017-02-20T11:31:04.463Z,24.18
2017-02-20T11:32:04.417Z,24.22
2017-02-20T11:33:04.469Z,24.22
2017-02-20T11:34:04.472Z,24.2
2017-02-20T11:35:04.438Z,24.28
2017-02-20T11:36:04.429Z,24.3
2017-02-20T11:37:03.662Z,24.28
2017-02-20T11:38:04.051Z,24.35
2017-02-20T11:39:04.500Z,24.34
2017-02-20T11:40:04.572Z,24.24
2017-02-20T11:41:04.082Z,24.39
2017-02-20T11:42:04.080Z,24.3
2017-02-20T11:43:04.474Z,24.37
2017-02-20T11:44:04.486Z,24.35
2017-02-20T11:45:04.151Z,24.35
2017-02-20T11:46:04.556Z,24.43
2017-02-20T11:47:04.533Z,24.3
2017-02-20T11:48:04.521Z,24.34
2017-02-20T11:49:04.569Z,24.28
2017-02-20T11:50:04.221Z,24.27
2017-02-20T11:51:04.541Z,24.31
2017-02-20T11:52:04.553Z,24.27
2017-02-20T11:53:04.605Z,24.2
2017-02-20T11:54:04.603Z,24.24
2017-02-20T11:55:04.577Z,24.22
2017-02-20T11:56:04.631Z,24.21
2017-02-20T11:57:04.685Z,24.21
2017-02-20T11:58:05.128Z,24.08
2017-02-20T11:59:04.585Z,24.06
2017-02-20T12:00:04.594Z,24.16
2017-02-20T12:01:04.220Z,24.15
2017-02-20T12:02:05.012Z,24.12
2017-02-20T12:03:04.672Z,24.27
2017-02-20T12:04:04.666Z,24.16
2017-02-20T12:05:04.690Z,24.22
2017-02-20T12:06:04.645Z,24.08
2017-02-20T12:07:04.639Z,24.06
2017-02-20T12:08:04.274Z,23.98
2017-02-20T12:09:04.715Z,24.09
2017-02-20T12:10:04.657Z,24.12
2017-02-20T12:11:04.720Z,24.13
2017-02-20T12:12:04.719Z,24.16
2017-02-20T12:13:04.284Z,24.13
2017-02-20T12:14:04.684Z,24.21
2017-02-20T12:15:04.853Z,24.08
2017-02-20T12:16:04.700Z,24.06
2017-02-20T12:17:04.722Z,24.08
2017-02-20T12:18:04.762Z,24.1
2017-02-20T12:19:04.325Z,24.06
2017-02-20T12:20:04.364Z,23.98
2017-02-20T12:21:04.790Z,24.02
2017-02-20T12:22:04.847Z,24
2017-02-20T12:23:04.354Z,24.06
2017-02-20T12:24:04.405Z,24.15
2017-02-20T12:25:04.749Z,24.13
2017-02-20T12:26:04.809Z,24.05
2017-02-20T12:27:04.428Z,24.03
2017-02-20T12:28:04.788Z,24.1
2017-02-20T12:29:04.829Z,24.18
2017-02-20T12:30:05.084Z,24.1
2017-02-20T12:31:04.848Z,24.1
2017-02-20T12:32:04.800Z,24.03
2017-02-20T12:33:04.856Z,24.03
2017-02-20T12:34:04.820Z,24.02
2017-02-20T12:35:04.588Z,24.02
2017-02-20T12:36:04.478Z,24.06
2017-02-20T12:37:04.889Z,24.1
2017-02-20T12:38:04.956Z,24.03
2017-02-20T12:39:04.914Z,24
2017-02-20T12:40:04.909Z,24
2017-02-20T12:41:04.923Z,24.02
2017-02-20T12:42:04.522Z,23.95
2017-02-20T12:43:04.924Z,24.13
2017-02-20T12:44:05.088Z,24.2
2017-02-20T12:45:04.940Z,24.06
2017-02-20T12:46:04.944Z,24.15
2017-02-20T12:47:05.329Z,24.03
2017-02-20T12:48:05.104Z,24.08
2017-02-20T12:49:04.697Z,24.08
2017-02-20T12:50:04.932Z,24.05
2017-02-20T12:51:04.944Z,24.1
2017-02-20T12:52:05.027Z,24.06
2017-02-20T12:53:04.929Z,24.06
2017-02-20T12:54:05.289Z,24.12
2017-02-20T12:55:04.999Z,24.08
2017-02-20T12:56:05.003Z,24.06
2017-02-20T12:57:05.125Z,24.12
2017-02-20T12:58:05.013Z,24.2